createdAt,value
2022-08-30T00:02:05.668Z,21.40
2022-08-30T00:04:32.448Z,21.50
2022-08-30T00:06:59.729Z,21.50
2022-08-30T00:09:26.498Z,21.50
2022-08-30T00:11:53.268Z,21.50
2022-08-30T00:14:20.437Z,21.60
2022-08-30T00:16:47.369Z,21.60
2022-08-30T00:19:14.177Z,21.70
2022-08-30T00:21:41.012Z,21.70
2022-08-30T00:24:07.807Z,21.80
2022-08-30T00:26:34.592Z,21.80
2022-08-30T00:29:01.370Z,21.80
2022-08-30T00:31:28.197Z,21.80
2022-08-30T00:33:54.988Z,21.80
2022-08-30T00:36:21.784Z,21.70
2022-08-30T00:38:48.556Z,21.70
2022-08-30T00:41:15.364Z,21.60
2022-08-30T00:43:42.145Z,21.50
2022-08-30T00:46:10.409Z,21.50
2022-08-30T00:48:41.212Z,21.50
2022-08-30T00:51:08.586Z,21.50
2022-08-30T00:53:36.843Z,21.50
2022-08-30T00:56:03.790Z,21.50
2022-08-30T00:58:34.806Z,21.40
2022-08-30T01:01:01.772Z,21.40
2022-08-30T01:03:28.689Z,21.40
2022-08-30T01:05:55.709Z,21.30
2022-08-30T01:08:22.545Z,21.30
2022-08-30T01:10:49.900Z,21.30
2022-08-30T01:13:16.772Z,21.30
2022-08-30T01:15:43.745Z,21.30
2022-08-30T01:18:11.592Z,21.30
2022-08-30T01:20:50.796Z,21.20
2022-08-30T01:23:18.477Z,21.20
2022-08-30T01:25:45.449Z,21.20
2022-08-30T01:28:13.854Z,21.20
2022-08-30T01:30:42.942Z,21.20
2022-08-30T01:33:10.168Z,21.20
2022-08-30T01:35:53.490Z,21.20
2022-08-30T01:38:21.948Z,21.20
2022-08-30T01:40:49.479Z,21.10
2022-08-30T01:43:16.327Z,21.10
2022-08-30T01:45:43.297Z,21.10
2022-08-30T01:48:13.002Z,21.10
2022-08-30T01:50:40.689Z,21.10
2022-08-30T01:53:07.738Z,21.10
2022-08-30T01:55:39.144Z,21.10
2022-08-30T01:58:05.934Z,21.10
2022-08-30T02:00:32.688Z,21.10
2022-08-30T02:02:59.500Z,21.00
2022-08-30T02:05:26.291Z,20.90
2022-08-30T02:07:53.865Z,20.90
2022-08-30T02:10:20.996Z,20.90
2022-08-30T02:12:47.756Z,20.80
2022-08-30T02:15:14.515Z,20.80
2022-08-30T02:17:42.437Z,20.80
2022-08-30T02:20:09.494Z,20.80
2022-08-30T02:22:36.393Z,20.80
2022-08-30T02:25:04.267Z,20.80
2022-08-30T02:27:32.230Z,20.70
2022-08-30T02:29:59.043Z,20.70
2022-08-30T02:32:25.796Z,20.70
2022-08-30T02:34:52.653Z,20.60
2022-08-30T02:37:20.532Z,20.60
2022-08-30T02:39:47.293Z,20.60
2022-08-30T02:42:14.084Z,20.60
2022-08-30T02:44:40.830Z,20.60
2022-08-30T02:47:07.578Z,20.50
2022-08-30T02:49:34.456Z,20.50
2022-08-30T02:52:02.243Z,20.50
2022-08-30T02:54:29.012Z,20.50
2022-08-30T02:56:56.402Z,20.50
2022-08-30T02:59:23.167Z,20.50
2022-08-30T03:01:49.990Z,20.50
2022-08-30T03:04:16.833Z,20.60
2022-08-30T03:06:44.524Z,20.50
2022-08-30T03:09:11.376Z,20.50
2022-08-30T03:11:38.399Z,20.50
2022-08-30T03:14:05.408Z,20.50
2022-08-30T03:16:32.225Z,20.40
2022-08-30T03:18:59.031Z,20.40
2022-08-30T03:21:25.848Z,20.50
2022-08-30T03:23:52.609Z,20.50
2022-08-30T03:26:19.408Z,20.50
2022-08-30T03:28:46.195Z,20.40
2022-08-30T03:31:13.148Z,20.40
2022-08-30T03:33:40.575Z,20.30
2022-08-30T03:36:08.411Z,20.30
2022-08-30T03:38:35.244Z,20.20
2022-08-30T03:41:02.077Z,20.20
2022-08-30T03:43:28.829Z,20.10
2022-08-30T03:45:56.676Z,20.10
2022-08-30T03:48:23.517Z,20.10
2022-08-30T03:50:50.274Z,20.10
2022-08-30T03:53:17.329Z,20.10
2022-08-30T03:55:44.172Z,20.10
2022-08-30T03:58:11.005Z,20.10
2022-08-30T04:00:37.858Z,20.10
2022-08-30T04:03:04.665Z,20.10
2022-08-30T04:05:31.428Z,20.10
2022-08-30T04:07:59.085Z,20.00
2022-08-30T04:10:26.560Z,20.00
2022-08-30T04:12:53.381Z,20.00
2022-08-30T04:15:20.538Z,20.00
2022-08-30T04:17:47.318Z,20.10
2022-08-30T04:20:14.067Z,20.00
2022-08-30T04:22:40.869Z,20.10
2022-08-30T04:25:08.003Z,20.10
2022-08-30T04:27:42.277Z,20.00
2022-08-30T04:30:09.339Z,20.00
2022-08-30T04:32:36.162Z,19.90
2022-08-30T04:35:02.959Z,20.00
2022-08-30T04:37:29.690Z,20.10
2022-08-30T04:39:57.584Z,20.00
2022-08-30T04:42:24.919Z,20.10
2022-08-30T04:44:51.707Z,20.10
2022-08-30T04:47:18.833Z,20.20
2022-08-30T04:49:46.085Z,20.20
2022-08-30T04:52:12.896Z,20.20
2022-08-30T04:54:39.779Z,20.40
2022-08-30T04:57:06.797Z,20.50
2022-08-30T04:59:33.583Z,20.80
2022-08-30T05:02:00.440Z,21.60
2022-08-30T05:04:27.282Z,21.90
2022-08-30T05:06:54.420Z,22.40
2022-08-30T05:09:22.277Z,23.60
2022-08-30T05:11:49.044Z,24.80
2022-08-30T05:14:15.820Z,26.10
2022-08-30T05:16:45.690Z,27.00
2022-08-30T05:19:12.546Z,27.80
2022-08-30T05:21:41.191Z,28.50
2022-08-30T05:24:08.154Z,29.10
2022-08-30T05:26:35.049Z,29.70
2022-08-30T05:29:01.980Z,30.20
2022-08-30T05:31:29.824Z,30.50
2022-08-30T05:33:56.672Z,30.70
2022-08-30T05:36:25.876Z,30.70
2022-08-30T05:38:52.871Z,31.10
2022-08-30T05:41:20.565Z,31.50
2022-08-30T05:43:47.950Z,32.00
2022-08-30T05:46:14.929Z,32.00
2022-08-30T05:48:41.879Z,31.90
2022-08-30T05:51:11.623Z,32.00
2022-08-30T05:53:38.703Z,32.30
2022-08-30T05:56:06.349Z,32.50
2022-08-30T05:58:33.158Z,32.60
2022-08-30T06:01:00.072Z,32.60
2022-08-30T06:03:27.075Z,32.70
2022-08-30T06:05:54.024Z,32.70
2022-08-30T06:08:21.121Z,33.20
2022-08-30T06:10:47.874Z,33.50
2022-08-30T06:13:14.896Z,33.90
2022-08-30T06:15:43.930Z,34.10
2022-08-30T06:18:11.752Z,34.80
2022-08-30T06:20:42.414Z,36.00
2022-08-30T06:23:09.698Z,37.00
2022-08-30T06:25:41.346Z,36.90
2022-08-30T06:28:09.070Z,37.20
2022-08-30T06:30:35.954Z,37.80
2022-08-30T06:33:02.722Z,38.00
2022-08-30T06:35:30.833Z,38.10
2022-08-30T06:38:01.962Z,38.10
2022-08-30T06:40:28.905Z,38.40
2022-08-30T06:42:55.906Z,38.50
2022-08-30T06:45:25.611Z,38.70
2022-08-30T06:47:52.642Z,38.60
2022-08-30T06:50:19.500Z,38.50
2022-08-30T06:52:46.297Z,38.30
2022-08-30T06:55:14.519Z,38.40
2022-08-30T06:57:41.285Z,38.90
2022-08-30T07:00:08.635Z,39.20
2022-08-30T07:02:36.790Z,39.70
2022-08-30T07:05:04.017Z,40.10
2022-08-30T07:07:30.836Z,40.20
2022-08-30T07:09:57.617Z,39.70
2022-08-30T07:12:24.645Z,39.70
2022-08-30T07:14:51.502Z,40.20
2022-08-30T07:17:36.925Z,40.70
2022-08-30T07:20:04.368Z,41.00
2022-08-30T07:22:32.404Z,41.20
2022-08-30T07:24:59.235Z,41.50
2022-08-30T07:27:26.025Z,42.00
2022-08-30T07:29:52.879Z,42.30
2022-08-30T07:32:19.650Z,42.20
2022-08-30T07:34:46.415Z,42.50
2022-08-30T07:37:17.947Z,42.80
2022-08-30T07:39:47.783Z,43.10
2022-08-30T07:42:15.217Z,43.10
2022-08-30T07:44:42.053Z,43.20
2022-08-30T07:47:08.856Z,43.50
2022-08-30T07:49:36.523Z,43.80
2022-08-30T07:52:03.468Z,44.20
2022-08-30T07:54:30.249Z,44.50
2022-08-30T07:56:57.019Z,44.60
2022-08-30T07:59:23.802Z,44.70
2022-08-30T08:01:50.700Z,44.90
2022-08-30T08:04:19.517Z,44.90
2022-08-30T08:06:46.314Z,45.10
2022-08-30T08:09:13.380Z,45.00
2022-08-30T08:11:41.492Z,44.90
2022-08-30T08:14:08.321Z,44.40
2022-08-30T08:16:37.482Z,44.00
2022-08-30T08:19:08.535Z,43.90
2022-08-30T08:21:35.312Z,43.80
2022-08-30T08:24:02.236Z,43.80
2022-08-30T08:26:29.064Z,43.70
2022-08-30T08:28:55.839Z,43.70
2022-08-30T08:31:27.374Z,44.00
2022-08-30T08:36:30.324Z,44.00
2022-08-30T08:38:57.152Z,43.90
2022-08-30T08:41:30.021Z,44.40
2022-08-30T08:43:56.799Z,44.30
2022-08-30T08:46:23.599Z,44.70
2022-08-30T08:48:59.995Z,45.00
2022-08-30T08:51:46.390Z,44.90
2022-08-30T08:54:17.003Z,44.40
2022-08-30T08:56:43.785Z,44.50
2022-08-30T08:59:11.584Z,44.90
2022-08-30T09:01:41.487Z,45.20
2022-08-30T09:04:10.089Z,45.00
2022-08-30T09:06:45.421Z,44.50
2022-08-30T09:09:12.678Z,44.30
2022-08-30T09:11:39.859Z,43.60
2022-08-30T09:14:10.405Z,42.70
2022-08-30T09:16:49.974Z,42.30
2022-08-30T09:19:37.083Z,42.50
2022-08-30T09:22:20.334Z,42.90
2022-08-30T09:24:49.191Z,43.00
2022-08-30T09:27:23.935Z,42.60
2022-08-30T09:30:14.286Z,42.00
2022-08-30T09:32:42.893Z,40.70
2022-08-30T09:35:10.836Z,39.20
2022-08-30T09:37:38.839Z,39.80
2022-08-30T09:40:09.834Z,41.10
2022-08-30T09:42:37.302Z,42.40
2022-08-30T09:45:10.629Z,43.20
2022-08-30T09:47:38.958Z,43.80
2022-08-30T09:50:18.247Z,44.40
2022-08-30T09:53:09.862Z,44.70
2022-08-30T09:55:48.673Z,44.40
2022-08-30T09:58:20.523Z,43.90
2022-08-30T10:00:57.202Z,43.80
2022-08-30T10:03:40.563Z,44.00
2022-08-30T10:06:29.122Z,43.70
2022-08-30T10:09:02.261Z,42.40
2022-08-30T10:11:37.650Z,40.70
2022-08-30T10:14:24.744Z,39.40
2022-08-30T10:16:54.148Z,38.10
2022-08-30T10:19:39.781Z,37.00
2022-08-30T10:22:09.691Z,36.30
2022-08-30T10:24:40.423Z,35.70
2022-08-30T10:27:18.070Z,35.30
2022-08-30T10:29:53.306Z,35.10
2022-08-30T10:32:24.973Z,35.20
2022-08-30T10:34:53.155Z,35.30
2022-08-30T10:37:20.644Z,34.90
2022-08-30T10:40:22.620Z,34.40
2022-08-30T10:42:51.167Z,33.80
2022-08-30T10:45:18.827Z,33.00
2022-08-30T10:48:25.013Z,32.50
2022-08-30T10:50:53.678Z,32.20
2022-08-30T10:53:30.095Z,32.10
2022-08-30T10:56:00.409Z,32.10
2022-08-30T10:58:27.918Z,32.40
2022-08-30T11:01:13.741Z,32.60
2022-08-30T11:03:46.279Z,32.70
2022-08-30T11:06:17.062Z,32.60
2022-08-30T11:08:43.827Z,32.70
2022-08-30T11:11:36.991Z,32.60
2022-08-30T11:14:07.839Z,32.40
2022-08-30T11:16:38.994Z,32.50
2022-08-30T11:19:16.518Z,32.80
2022-08-30T11:21:45.841Z,33.00
2022-08-30T11:24:25.052Z,33.10
2022-08-30T11:26:57.226Z,33.30
2022-08-30T11:29:29.830Z,33.10
2022-08-30T11:31:58.243Z,33.10
2022-08-30T11:34:43.440Z,33.10
2022-08-30T11:37:10.691Z,33.20
2022-08-30T11:39:43.715Z,33.20
2022-08-30T11:42:14.000Z,33.20
2022-08-30T11:44:40.910Z,33.20
2022-08-30T11:47:31.602Z,33.30
2022-08-30T11:50:09.822Z,33.20
2022-08-30T11:52:41.446Z,33.10
2022-08-30T11:55:13.046Z,33.00
2022-08-30T11:57:59.018Z,33.00
2022-08-30T12:00:28.602Z,33.00
2022-08-30T12:03:08.288Z,32.90
2022-08-30T12:05:38.675Z,32.80
2022-08-30T12:08:06.420Z,32.90
2022-08-30T12:10:43.396Z,33.00
2022-08-30T12:13:10.898Z,33.10
2022-08-30T12:15:54.468Z,33.20
2022-08-30T12:18:28.227Z,33.30
2022-08-30T12:21:08.936Z,33.40
2022-08-30T12:23:44.360Z,33.40
2022-08-30T12:26:13.073Z,33.20
2022-08-30T12:28:42.181Z,33.10
2022-08-30T12:31:10.441Z,32.80
2022-08-30T12:33:41.747Z,32.60
2022-08-30T12:36:15.668Z,32.40
2022-08-30T12:38:42.586Z,32.40
2022-08-30T12:41:14.351Z,32.50
2022-08-30T12:43:47.269Z,32.70
2022-08-30T12:46:16.189Z,32.80
2022-08-30T12:48:43.274Z,32.90
2022-08-30T12:51:11.880Z,33.00
2022-08-30T12:53:41.949Z,33.10
2022-08-30T12:56:09.970Z,33.10
2022-08-30T12:58:47.350Z,33.10
2022-08-30T13:01:27.699Z,33.10
2022-08-30T13:03:59.658Z,33.00
2022-08-30T13:06:36.598Z,32.80
2022-08-30T13:09:03.418Z,32.50
2022-08-30T13:11:30.540Z,32.50
2022-08-30T13:14:01.010Z,32.50
2022-08-30T13:16:29.411Z,32.50
2022-08-30T13:19:15.209Z,32.60
2022-08-30T13:21:50.505Z,32.60
2022-08-30T13:24:17.293Z,32.50
2022-08-30T13:26:45.253Z,32.30
2022-08-30T13:29:18.962Z,32.10
2022-08-30T13:31:45.923Z,32.00
2022-08-30T13:34:12.968Z,32.10
2022-08-30T13:36:54.405Z,32.20
2022-08-30T13:39:23.303Z,32.10
2022-08-30T13:41:50.303Z,31.90
2022-08-30T13:44:18.480Z,31.90
2022-08-30T13:46:52.526Z,32.00
2022-08-30T13:52:20.935Z,32.10
2022-08-30T13:54:50.009Z,32.10
2022-08-30T13:57:53.085Z,32.10
2022-08-30T14:00:08.864Z,32.20
2022-08-30T14:02:42.249Z,32.30
2022-08-30T14:05:30.767Z,32.40
2022-08-30T14:07:58.793Z,32.40
2022-08-30T14:10:37.731Z,32.50
2022-08-30T14:13:12.647Z,32.50
2022-08-30T14:15:41.492Z,32.50
2022-08-30T14:18:08.279Z,32.50
2022-08-30T14:20:38.676Z,32.40
2022-08-30T14:23:10.044Z,32.30
2022-08-30T14:25:37.404Z,32.20
2022-08-30T14:28:04.204Z,32.20
2022-08-30T14:30:31.838Z,32.10
2022-08-30T14:33:00.159Z,32.10
2022-08-30T14:35:27.000Z,32.10
2022-08-30T14:37:54.357Z,32.00
2022-08-30T14:40:21.352Z,32.00
2022-08-30T14:42:48.204Z,32.00
2022-08-30T14:45:15.058Z,32.00
2022-08-30T14:47:41.810Z,31.90
2022-08-30T14:50:08.767Z,31.80
2022-08-30T14:52:36.211Z,31.70
2022-08-30T14:55:08.647Z,31.50
2022-08-30T14:57:36.484Z,31.50
2022-08-30T15:00:05.878Z,31.50
2022-08-30T15:02:32.686Z,31.50
2022-08-30T15:04:59.485Z,31.50
2022-08-30T15:07:26.247Z,31.50
2022-08-30T15:09:53.138Z,31.40
2022-08-30T15:12:19.968Z,31.40
2022-08-30T15:14:46.770Z,31.40
2022-08-30T15:17:13.638Z,31.40
2022-08-30T15:19:40.581Z,31.40
2022-08-30T15:22:09.179Z,31.40
2022-08-30T15:24:36.425Z,31.40
2022-08-30T15:27:03.339Z,31.30
2022-08-30T15:29:30.501Z,31.30
2022-08-30T15:31:58.680Z,31.20
2022-08-30T15:34:26.228Z,31.10
2022-08-30T15:36:55.434Z,31.00
2022-08-30T15:39:22.228Z,31.00
2022-08-30T15:41:55.732Z,30.90
2022-08-30T15:44:25.448Z,30.80
2022-08-30T15:46:52.287Z,30.80
2022-08-30T15:49:20.386Z,30.70
2022-08-30T15:51:48.286Z,30.70
2022-08-30T15:54:19.241Z,30.60
2022-08-30T15:56:46.186Z,30.60
2022-08-30T15:59:15.319Z,30.50
2022-08-30T16:01:42.704Z,30.40
2022-08-30T16:04:10.816Z,30.40
2022-08-30T16:06:37.953Z,30.30
2022-08-30T16:09:05.500Z,30.30
2022-08-30T16:11:32.324Z,30.20
2022-08-30T16:13:59.264Z,30.20
2022-08-30T16:16:26.103Z,30.10
2022-08-30T16:18:54.364Z,30.10
2022-08-30T16:21:26.375Z,30.00
2022-08-30T16:23:53.998Z,30.00
2022-08-30T16:26:21.193Z,29.90
2022-08-30T16:28:48.846Z,29.90
2022-08-30T16:31:16.403Z,29.80
2022-08-30T16:33:44.788Z,29.70
2022-08-30T16:36:12.045Z,29.50
2022-08-30T16:38:38.903Z,29.20
2022-08-30T16:41:07.894Z,29.00
2022-08-30T16:43:35.427Z,28.90
2022-08-30T16:46:06.191Z,28.70
2022-08-30T16:48:33.526Z,28.60
2022-08-30T16:51:00.963Z,28.70
2022-08-30T16:53:27.777Z,28.60
2022-08-30T16:55:54.719Z,28.50
2022-08-30T16:58:22.398Z,28.40
2022-08-30T17:00:52.090Z,28.20
2022-08-30T17:03:19.029Z,28.00
2022-08-30T17:05:47.966Z,27.90
2022-08-30T17:08:16.881Z,27.80
2022-08-30T17:10:47.169Z,27.80
2022-08-30T17:13:16.763Z,27.80
2022-08-30T17:15:45.818Z,27.70
2022-08-30T17:18:13.198Z,27.70
2022-08-30T17:20:41.065Z,27.60
2022-08-30T17:23:11.363Z,27.40
2022-08-30T17:25:38.796Z,27.30
2022-08-30T17:28:08.472Z,27.20
2022-08-30T17:30:35.419Z,27.10
2022-08-30T17:33:02.225Z,27.00
2022-08-30T17:35:28.983Z,26.80
2022-08-30T17:37:55.873Z,26.70
2022-08-30T17:40:22.689Z,26.60
2022-08-30T17:42:49.533Z,26.50
2022-08-30T17:45:16.751Z,26.30
2022-08-30T17:47:43.633Z,26.20
2022-08-30T17:50:10.767Z,26.10
2022-08-30T17:52:38.786Z,26.10
2022-08-30T17:55:06.637Z,26.00
2022-08-30T17:57:33.561Z,26.00
2022-08-30T18:00:01.024Z,26.00
2022-08-30T18:02:29.912Z,25.90
2022-08-30T18:04:58.243Z,25.90
2022-08-30T18:07:26.556Z,25.90
2022-08-30T18:09:53.884Z,25.90
2022-08-30T18:12:21.306Z,25.90
2022-08-30T18:14:52.575Z,25.70
2022-08-30T18:17:19.877Z,25.70
2022-08-30T18:19:46.895Z,25.60
2022-08-30T18:22:14.327Z,25.60
2022-08-30T18:24:41.184Z,25.50
2022-08-30T18:27:07.983Z,25.40
2022-08-30T18:29:35.535Z,25.50
2022-08-30T18:32:02.473Z,25.50
2022-08-30T18:34:29.523Z,25.40
2022-08-30T18:36:56.408Z,25.40
2022-08-30T18:39:23.281Z,25.40
2022-08-30T18:41:51.024Z,25.20
2022-08-30T18:44:29.072Z,25.20
2022-08-30T18:46:57.219Z,25.10
2022-08-30T18:49:25.011Z,25.00
2022-08-30T18:51:51.889Z,24.90
2022-08-30T18:54:18.896Z,24.70
2022-08-30T18:56:45.893Z,24.60
2022-08-30T18:59:12.946Z,24.60
2022-08-30T19:01:40.361Z,24.60
2022-08-30T19:04:07.789Z,24.70
2022-08-30T19:06:34.736Z,24.60
2022-08-30T19:09:08.910Z,24.60
2022-08-30T19:11:36.354Z,24.60
2022-08-30T19:14:05.225Z,24.50
2022-08-30T19:16:34.426Z,24.50
2022-08-30T19:19:02.847Z,24.60
2022-08-30T19:21:29.637Z,24.50
2022-08-30T19:23:56.458Z,24.50
2022-08-30T19:26:23.263Z,24.30
2022-08-30T19:28:54.336Z,24.20
2022-08-30T19:31:21.077Z,24.20
2022-08-30T19:33:47.852Z,24.20
2022-08-30T19:36:14.763Z,24.10
2022-08-30T19:38:44.405Z,24.10
2022-08-30T19:41:11.343Z,24.10
2022-08-30T19:43:38.194Z,24.00
2022-08-30T19:46:05.013Z,24.00
2022-08-30T19:51:18.542Z,24.00
2022-08-30T19:53:46.015Z,23.80
2022-08-30T19:56:12.872Z,23.80
2022-08-30T19:58:41.400Z,23.70
2022-08-30T20:01:10.826Z,23.70
2022-08-30T20:03:39.898Z,23.80
2022-08-30T20:06:07.232Z,23.90
2022-08-30T20:08:34.261Z,23.90
2022-08-30T20:11:01.050Z,23.90
2022-08-30T20:13:28.373Z,24.00
2022-08-30T20:15:56.320Z,24.00
2022-08-30T20:18:26.028Z,24.10
2022-08-30T20:20:53.135Z,24.00
2022-08-30T20:23:22.638Z,24.10
2022-08-30T20:25:54.587Z,24.10
2022-08-30T20:28:21.754Z,24.00
2022-08-30T20:30:48.830Z,24.00
2022-08-30T20:33:16.193Z,23.90
2022-08-30T20:35:49.362Z,23.80
2022-08-30T20:38:22.561Z,23.80
2022-08-30T20:40:50.438Z,23.70
2022-08-30T20:43:18.575Z,23.50
2022-08-30T20:45:45.379Z,23.40
2022-08-30T20:48:12.437Z,23.30
2022-08-30T20:50:39.438Z,23.20
2022-08-30T20:53:06.213Z,23.10
2022-08-30T20:55:33.006Z,23.00
2022-08-30T20:57:59.825Z,23.00
2022-08-30T21:00:26.643Z,23.00
2022-08-30T21:02:53.975Z,23.00
2022-08-30T21:05:20.910Z,22.90
2022-08-30T21:07:47.797Z,22.90
2022-08-30T21:10:14.613Z,23.00
2022-08-30T21:12:42.887Z,23.00
2022-08-30T21:15:33.726Z,23.00
2022-08-30T21:17:57.301Z,23.00
2022-08-30T21:20:24.085Z,22.90
2022-08-30T21:22:50.874Z,22.90
2022-08-30T21:25:17.698Z,22.80
2022-08-30T21:27:44.505Z,22.80
2022-08-30T21:30:12.523Z,22.80
2022-08-30T21:32:39.415Z,22.70
2022-08-30T21:35:35.650Z,22.70
2022-08-30T21:38:04.394Z,22.70
2022-08-30T21:40:31.216Z,22.70
2022-08-30T21:43:00.414Z,22.70
2022-08-30T21:45:29.281Z,22.70
2022-08-30T21:47:56.046Z,22.70
2022-08-30T21:50:22.817Z,22.70
2022-08-30T21:52:49.606Z,22.70
2022-08-30T21:55:16.379Z,22.70
2022-08-30T21:57:43.121Z,22.70
2022-08-30T22:00:10.443Z,22.70
2022-08-30T22:02:37.280Z,22.70
2022-08-30T22:05:04.178Z,22.60
2022-08-30T22:07:30.967Z,22.60
2022-08-30T22:09:58.415Z,22.60
2022-08-30T22:12:25.934Z,22.50
2022-08-30T22:14:52.818Z,22.50
2022-08-30T22:17:20.469Z,22.50
2022-08-30T22:19:47.981Z,22.40
2022-08-30T22:22:16.929Z,22.40
2022-08-30T22:24:43.708Z,22.30
2022-08-30T22:27:10.521Z,22.30
2022-08-30T22:29:37.361Z,22.20
2022-08-30T22:32:04.304Z,22.20
2022-08-30T22:34:32.221Z,22.20
2022-08-30T22:36:59.162Z,22.20
2022-08-30T22:39:25.955Z,22.30
2022-08-30T22:41:52.699Z,22.20
2022-08-30T22:44:19.525Z,22.10
2022-08-30T22:46:46.601Z,22.00
2022-08-30T22:49:13.480Z,21.90
2022-08-30T22:51:40.528Z,21.90
2022-08-30T22:54:07.742Z,21.90
2022-08-30T22:56:34.746Z,21.90
2022-08-30T22:59:01.559Z,21.90
2022-08-30T23:01:30.013Z,21.90
2022-08-30T23:03:57.153Z,21.70
2022-08-30T23:06:23.925Z,21.70
2022-08-30T23:08:50.740Z,21.70
2022-08-30T23:11:17.560Z,21.60
2022-08-30T23:13:44.349Z,21.60
2022-08-30T23:16:11.398Z,21.60
2022-08-30T23:18:38.758Z,21.60
2022-08-30T23:21:06.067Z,21.60
2022-08-30T23:23:56.045Z,21.60
2022-08-30T23:26:41.427Z,21.50
2022-08-30T23:29:26.850Z,21.50
2022-08-30T23:32:12.096Z,21.50
2022-08-30T23:34:57.492Z,21.50
2022-08-30T23:37:42.861Z,21.50
2022-08-30T23:40:28.864Z,21.40
2022-08-30T23:43:14.066Z,21.40
2022-08-30T23:45:59.342Z,21.30
2022-08-30T23:48:50.914Z,21.30
2022-08-30T23:51:37.410Z,21.30
2022-08-30T23:54:23.372Z,21.20
2022-08-30T23:57:08.686Z,21.20
2022-08-30T23:59:53.856Z,21.20
